createdAt,value
2023-01-10T00:02:13.843Z,8.30
2023-01-10T00:04:42.431Z,1.40
2023-01-10T00:07:12.692Z,1.20
2023-01-10T00:09:41.234Z,7.67
2023-01-10T00:12:27.431Z,18.63
2023-01-10T00:14:55.984Z,6.77
2023-01-10T00:17:24.462Z,11.00
2023-01-10T00:19:53.047Z,6.50
2023-01-10T00:22:25.300Z,31.17
2023-01-10T00:24:54.009Z,12.53
2023-01-10T00:27:23.726Z,9.33
2023-01-10T00:29:53.900Z,27.20
2023-01-10T00:32:23.023Z,7.17
2023-01-10T00:34:51.626Z,8.43
2023-01-10T00:37:20.211Z,8.97
2023-01-10T00:39:50.176Z,29.67
2023-01-10T00:42:36.481Z,14.67
2023-01-10T00:45:05.156Z,18.57
2023-01-10T00:47:33.785Z,153.43
2023-01-10T00:50:04.118Z,31.73
2023-01-10T00:52:32.726Z,6.80
2023-01-10T00:55:02.686Z,10.23
2023-01-10T00:57:31.149Z,6.60
2023-01-10T00:59:59.750Z,51.77
2023-01-10T01:02:28.474Z,91.43
2023-01-10T01:04:57.139Z,9.53
2023-01-10T01:07:25.744Z,168.90
2023-01-10T01:10:20.098Z,53.40
2023-01-10T01:12:50.090Z,45.70
2023-01-10T01:15:18.653Z,51.07
2023-01-10T01:17:47.734Z,35.53
2023-01-10T01:20:16.614Z,60.63
2023-01-10T01:22:45.130Z,14.63
2023-01-10T01:25:13.711Z,18.93
2023-01-10T01:27:42.315Z,46.27
2023-01-10T01:30:13.536Z,22.97
2023-01-10T01:32:42.117Z,76.47
2023-01-10T01:35:12.494Z,110.07
2023-01-10T01:37:41.078Z,53.30
2023-01-10T01:40:10.345Z,66.23
2023-01-10T01:42:39.159Z,41.60
2023-01-10T01:45:25.922Z,30.83
2023-01-10T01:47:57.936Z,59.60
2023-01-10T01:50:28.715Z,41.23
2023-01-10T01:52:58.558Z,94.93
2023-01-10T01:55:27.997Z,69.40
2023-01-10T01:57:58.376Z,70.60
2023-01-10T02:00:26.962Z,69.37
2023-01-10T02:03:02.845Z,67.23
2023-01-10T02:05:33.055Z,69.07
2023-01-10T02:08:02.584Z,45.70
2023-01-10T02:10:34.535Z,61.40
2023-01-10T02:13:04.366Z,81.47
2023-01-10T02:15:33.178Z,76.40
2023-01-10T02:18:04.108Z,75.33
2023-01-10T02:20:36.554Z,72.73
2023-01-10T02:23:17.488Z,63.47
2023-01-10T02:26:05.125Z,60.07
2023-01-10T02:28:58.014Z,51.17
2023-01-10T02:31:47.336Z,47.67
2023-01-10T02:34:21.611Z,49.40
2023-01-10T02:36:53.020Z,62.70
2023-01-10T02:39:26.247Z,65.23
2023-01-10T02:41:57.879Z,55.87
2023-01-10T02:44:30.230Z,67.43
2023-01-10T02:47:01.127Z,35.30
2023-01-10T02:49:30.994Z,82.97
2023-01-10T02:51:59.683Z,72.27
2023-01-10T02:54:30.725Z,23.83
2023-01-10T02:57:16.840Z,56.67
2023-01-10T03:00:04.921Z,25.63
2023-01-10T03:02:40.240Z,26.80
2023-01-10T03:05:12.709Z,57.07
2023-01-10T03:07:45.687Z,30.13
2023-01-10T03:10:16.639Z,30.27
2023-01-10T03:12:49.157Z,26.63
2023-01-10T03:15:18.962Z,37.27
2023-01-10T03:17:49.688Z,30.63
2023-01-10T03:20:21.543Z,62.60
2023-01-10T03:22:50.370Z,44.77
2023-01-10T03:25:19.421Z,47.03
2023-01-10T03:27:51.919Z,10.87
2023-01-10T03:30:24.661Z,32.63
2023-01-10T03:32:53.650Z,55.20
2023-01-10T03:35:25.517Z,38.53
2023-01-10T03:37:57.593Z,37.63
2023-01-10T03:40:30.780Z,54.67
2023-01-10T03:43:19.798Z,77.13
2023-01-10T03:45:51.524Z,44.00
2023-01-10T03:48:20.711Z,36.60
2023-01-10T03:50:51.472Z,46.73
2023-01-10T03:53:20.333Z,75.13
2023-01-10T03:55:48.934Z,48.93
2023-01-10T03:58:21.819Z,48.87
2023-01-10T04:00:50.570Z,50.60
2023-01-10T04:03:19.100Z,44.47
2023-01-10T04:05:47.654Z,35.53
2023-01-10T04:08:17.728Z,74.37
2023-01-10T04:10:46.200Z,33.77
2023-01-10T04:13:14.658Z,49.97
2023-01-10T04:15:43.491Z,43.00
2023-01-10T04:18:13.111Z,70.23
2023-01-10T04:20:41.592Z,114.60
2023-01-10T04:23:10.290Z,59.37
2023-01-10T04:25:40.206Z,181.07
2023-01-10T04:28:08.684Z,262.13
2023-01-10T04:30:37.285Z,326.93
2023-01-10T04:33:07.309Z,429.73
2023-01-10T04:35:35.889Z,175.23
2023-01-10T04:38:04.500Z,287.43
2023-01-10T04:40:33.072Z,180.90
2023-01-10T04:43:02.951Z,166.47
2023-01-10T04:45:31.633Z,105.80
2023-01-10T04:48:00.432Z,133.90
2023-01-10T04:50:29.306Z,166.93
2023-01-10T04:52:57.890Z,80.93
2023-01-10T04:55:26.489Z,95.07
2023-01-10T04:57:54.992Z,154.97
2023-01-10T05:00:25.095Z,129.63
2023-01-10T05:02:57.464Z,84.80
2023-01-10T05:05:26.343Z,125.83
2023-01-10T05:07:54.989Z,111.37
2023-01-10T05:10:23.451Z,138.53
2023-01-10T05:12:52.380Z,208.10
2023-01-10T05:15:23.175Z,47.37
2023-01-10T05:17:59.212Z,130.60
2023-01-10T05:20:27.815Z,103.40
2023-01-10T05:22:56.289Z,62.90
2023-01-10T05:25:24.877Z,9.83
2023-01-10T05:27:53.452Z,92.77
2023-01-10T05:30:22.035Z,129.67
2023-01-10T05:32:50.617Z,151.03
2023-01-10T05:35:20.725Z,163.07
2023-01-10T05:37:49.244Z,152.80
2023-01-10T05:40:17.933Z,173.63
2023-01-10T05:42:46.522Z,77.80
2023-01-10T05:45:15.011Z,213.67
2023-01-10T05:47:43.862Z,34.27
2023-01-10T05:50:12.968Z,11.50
2023-01-10T05:52:42.856Z,110.00
2023-01-10T05:55:11.553Z,190.40
2023-01-10T05:57:40.131Z,196.63
2023-01-10T06:00:09.304Z,223.57
2023-01-10T06:02:37.998Z,151.37
2023-01-10T06:05:06.855Z,182.80
2023-01-10T06:07:35.330Z,70.00
2023-01-10T06:10:05.710Z,161.17
2023-01-10T06:12:34.284Z,27.70
2023-01-10T06:15:03.424Z,156.73
2023-01-10T06:17:31.960Z,64.73
2023-01-10T06:20:00.620Z,26.30
2023-01-10T06:22:29.298Z,54.97
2023-01-10T06:24:57.882Z,71.83
2023-01-10T06:27:27.857Z,96.23
2023-01-10T06:29:56.863Z,160.57
2023-01-10T06:32:25.446Z,141.93
2023-01-10T06:34:53.998Z,177.90
2023-01-10T06:37:22.539Z,144.53
2023-01-10T06:39:51.450Z,142.70
2023-01-10T06:42:20.090Z,114.07
2023-01-10T06:44:49.959Z,89.13
2023-01-10T06:47:18.607Z,100.47
2023-01-10T06:49:47.220Z,40.17
2023-01-10T06:52:15.703Z,18.23
2023-01-10T06:54:44.301Z,66.30
2023-01-10T06:57:15.151Z,219.10
2023-01-10T06:59:43.808Z,242.23
2023-01-10T07:02:14.057Z,280.43
2023-01-10T07:04:42.607Z,471.97
2023-01-10T07:07:11.213Z,359.53
2023-01-10T07:09:39.805Z,349.10
2023-01-10T07:12:08.311Z,301.70
2023-01-10T07:14:36.989Z,259.00
2023-01-10T07:17:05.731Z,309.43
2023-01-10T07:19:35.604Z,260.57
2023-01-10T07:22:04.177Z,213.53
2023-01-10T07:24:32.826Z,234.20
2023-01-10T07:27:01.305Z,281.77
2023-01-10T07:29:29.963Z,58.40
2023-01-10T07:31:58.550Z,249.23
2023-01-10T07:34:27.023Z,214.70
2023-01-10T07:36:56.990Z,144.57
2023-01-10T07:39:25.576Z,151.73
2023-01-10T07:41:54.480Z,286.10
2023-01-10T07:44:24.079Z,316.60
2023-01-10T07:46:52.680Z,242.67
2023-01-10T07:49:21.150Z,254.87
2023-01-10T07:51:49.723Z,246.23
2023-01-10T07:54:19.704Z,302.13
2023-01-10T07:56:48.292Z,281.30
2023-01-10T07:59:16.892Z,225.27
2023-01-10T08:01:45.496Z,110.27
2023-01-10T08:04:13.987Z,79.13
2023-01-10T08:06:42.564Z,3.93
2023-01-10T08:09:11.143Z,0.97
2023-01-10T08:11:41.753Z,2.10
2023-01-10T08:14:10.359Z,5.77
2023-01-10T08:16:38.983Z,66.30
2023-01-10T08:19:07.983Z,10.97
2023-01-10T08:21:36.515Z,4.17
2023-01-10T08:24:05.309Z,26.27
2023-01-10T08:26:33.785Z,4.33
2023-01-10T08:29:03.827Z,1.60
2023-01-10T08:31:32.743Z,1.53
2023-01-10T08:34:01.349Z,1.10
2023-01-10T08:36:30.160Z,3.13
2023-01-10T08:39:01.260Z,1.23
2023-01-10T08:41:29.722Z,2.37
2023-01-10T08:43:58.186Z,2.20
2023-01-10T08:46:28.615Z,6.20
2023-01-10T08:48:57.279Z,6.33
2023-01-10T08:51:25.743Z,3.37
2023-01-10T08:53:54.384Z,4.27
2023-01-10T08:56:23.102Z,1.53
2023-01-10T08:58:51.598Z,10.70
2023-01-10T09:01:20.479Z,8.30
2023-01-10T09:03:50.593Z,1.50
2023-01-10T09:06:19.113Z,2.80
2023-01-10T09:08:47.687Z,7.97
2023-01-10T09:11:16.299Z,2.03
2023-01-10T09:13:44.786Z,6.40
2023-01-10T09:16:13.461Z,2.97
2023-01-10T09:18:43.070Z,0.90
2023-01-10T09:21:12.942Z,1.17
2023-01-10T09:23:43.713Z,0.83
2023-01-10T09:26:12.411Z,2.10
2023-01-10T09:28:40.890Z,1.77
2023-01-10T09:31:11.478Z,2.20
2023-01-10T09:33:46.730Z,1.03
2023-01-10T09:36:17.554Z,11.80
2023-01-10T09:38:46.183Z,6.33
2023-01-10T09:41:36.361Z,18.17
2023-01-10T09:44:06.397Z,1.97
2023-01-10T09:46:39.596Z,0.80
2023-01-10T09:49:12.195Z,0.70
2023-01-10T09:51:43.589Z,0.77
2023-01-10T09:54:13.374Z,0.77
2023-01-10T09:56:42.454Z,1.03
2023-01-10T09:59:16.016Z,0.80
2023-01-10T10:01:44.642Z,4.00
2023-01-10T10:04:19.463Z,0.80
2023-01-10T10:06:51.583Z,0.70
2023-01-10T10:09:23.647Z,3.20
2023-01-10T10:11:57.869Z,0.70
2023-01-10T10:14:33.858Z,1.83
2023-01-10T10:17:16.703Z,2.73
2023-01-10T10:19:54.280Z,3.77
2023-01-10T10:22:28.055Z,0.80
2023-01-10T10:25:01.532Z,0.70
2023-01-10T10:27:37.288Z,2.57
2023-01-10T10:30:20.341Z,1.73
2023-01-10T10:32:59.189Z,0.57
2023-01-10T10:35:29.470Z,3.77
2023-01-10T10:38:03.336Z,3.17
2023-01-10T10:40:34.360Z,0.90
2023-01-10T10:43:12.566Z,1.90
2023-01-10T10:45:44.680Z,0.60
2023-01-10T10:48:15.742Z,0.80
2023-01-10T10:50:49.013Z,0.80
2023-01-10T10:53:19.844Z,1.17
2023-01-10T10:55:48.553Z,2.00
2023-01-10T10:58:17.239Z,1.97
2023-01-10T11:00:46.417Z,1.30
2023-01-10T11:03:23.568Z,1.37
2023-01-10T11:05:52.261Z,1.10
2023-01-10T11:08:23.520Z,1.60
2023-01-10T11:10:55.202Z,1.10
2023-01-10T11:13:29.078Z,1.40
2023-01-10T11:15:57.796Z,2.33
2023-01-10T11:18:27.216Z,2.83
2023-01-10T11:20:58.999Z,1.20
2023-01-10T11:23:35.221Z,0.90
2023-01-10T11:26:04.197Z,2.03
2023-01-10T11:28:33.886Z,0.87
2023-01-10T11:31:02.986Z,0.60
2023-01-10T11:33:35.445Z,1.13
2023-01-10T11:36:05.065Z,2.50
2023-01-10T11:38:35.241Z,0.63
2023-01-10T11:41:04.410Z,1.53
2023-01-10T11:43:34.893Z,0.70
2023-01-10T11:46:04.799Z,2.50
2023-01-10T11:49:04.926Z,0.70
2023-01-10T11:51:35.665Z,1.40
2023-01-10T11:54:07.293Z,1.70
2023-01-10T11:56:37.055Z,0.70
2023-01-10T11:59:12.687Z,0.80
2023-01-10T12:01:42.784Z,1.60
2023-01-10T12:04:16.101Z,0.87
2023-01-10T12:06:46.870Z,0.40
2023-01-10T12:09:30.200Z,0.60
2023-01-10T12:12:04.736Z,0.77
2023-01-10T12:14:33.500Z,0.73
2023-01-10T12:17:02.521Z,1.60
2023-01-10T12:19:31.211Z,2.00
2023-01-10T12:22:02.487Z,0.63
2023-01-10T12:24:33.190Z,0.40
2023-01-10T12:27:02.495Z,0.40
2023-01-10T12:29:36.061Z,0.40
2023-01-10T12:32:06.984Z,1.60
2023-01-10T12:34:37.681Z,2.10
2023-01-10T12:37:09.907Z,0.50
2023-01-10T12:39:41.442Z,0.87
2023-01-10T12:42:32.174Z,2.00
2023-01-10T12:45:05.031Z,1.23
2023-01-10T12:47:35.953Z,2.50
2023-01-10T12:50:07.419Z,0.47
2023-01-10T12:52:42.845Z,1.37
2023-01-10T12:55:14.521Z,1.07
2023-01-10T12:57:44.526Z,0.20
2023-01-10T13:00:20.414Z,1.30
2023-01-10T13:02:49.855Z,1.00
2023-01-10T13:05:20.574Z,0.40
2023-01-10T13:07:50.014Z,0.33
2023-01-10T13:10:20.523Z,1.33
2023-01-10T13:12:55.230Z,0.40
2023-01-10T13:15:28.692Z,0.83
2023-01-10T13:18:01.220Z,0.30
2023-01-10T13:20:39.104Z,0.43
2023-01-10T13:23:26.558Z,2.53
2023-01-10T13:26:02.830Z,2.23
2023-01-10T13:28:32.073Z,0.50
2023-01-10T13:31:02.572Z,2.47
2023-01-10T13:33:32.499Z,0.73
2023-01-10T13:36:09.674Z,1.00
2023-01-10T13:38:40.262Z,0.77
2023-01-10T13:41:29.719Z,0.50
2023-01-10T13:44:01.120Z,0.40
2023-01-10T13:46:51.655Z,0.50
2023-01-10T13:49:44.072Z,1.03
2023-01-10T13:52:39.352Z,1.97
2023-01-10T13:55:29.811Z,1.23
2023-01-10T13:58:00.165Z,0.47
2023-01-10T14:01:00.740Z,0.73
2023-01-10T14:03:38.306Z,1.90
2023-01-10T14:06:09.729Z,2.97
2023-01-10T14:08:38.930Z,3.40
2023-01-10T14:11:09.432Z,0.83
2023-01-10T14:13:38.673Z,1.90
2023-01-10T14:16:08.871Z,0.37
2023-01-10T14:18:41.970Z,2.10
2023-01-10T14:21:11.664Z,2.47
2023-01-10T14:23:41.477Z,0.60
2023-01-10T14:26:18.991Z,2.93
2023-01-10T14:28:47.931Z,2.87
2023-01-10T14:31:20.735Z,1.50
2023-01-10T14:33:50.038Z,2.20
2023-01-10T14:36:20.439Z,0.70
2023-01-10T14:38:51.478Z,2.53
2023-01-10T14:41:24.989Z,1.77
2023-01-10T14:43:56.010Z,6.30
2023-01-10T14:46:26.666Z,2.53
2023-01-10T14:49:00.837Z,1.27
2023-01-10T14:51:30.141Z,2.93
2023-01-10T14:53:59.923Z,5.27
2023-01-10T14:56:30.712Z,3.47
2023-01-10T14:58:59.307Z,3.70
2023-01-10T15:01:29.644Z,1.17
2023-01-10T15:03:58.589Z,1.70
2023-01-10T15:06:27.611Z,6.17
2023-01-10T15:09:00.125Z,6.30
2023-01-10T15:11:31.046Z,2.97
2023-01-10T15:14:03.647Z,4.10
2023-01-10T15:16:32.861Z,4.90
2023-01-10T15:19:01.514Z,1.03
2023-01-10T15:21:30.119Z,6.17
2023-01-10T15:23:58.680Z,5.47
2023-01-10T15:26:33.435Z,3.83
2023-01-10T15:29:06.977Z,4.17
2023-01-10T15:31:37.781Z,3.93
2023-01-10T15:34:09.578Z,5.40
2023-01-10T15:36:38.095Z,3.87
2023-01-10T15:39:06.709Z,3.10
2023-01-10T15:41:38.560Z,6.33
2023-01-10T15:44:31.469Z,5.53
2023-01-10T15:47:00.198Z,7.27
2023-01-10T15:49:29.578Z,6.10
2023-01-10T15:51:58.585Z,6.23
2023-01-10T15:54:31.407Z,5.57
2023-01-10T15:57:04.607Z,6.13
2023-01-10T15:59:34.165Z,13.43
2023-01-10T16:02:07.656Z,2.63
2023-01-10T16:04:36.887Z,8.87
2023-01-10T16:07:09.986Z,13.03
2023-01-10T16:09:39.674Z,6.43
2023-01-10T16:12:42.620Z,7.87
2023-01-10T16:15:17.206Z,8.50
2023-01-10T16:17:45.742Z,6.77
2023-01-10T16:20:14.847Z,5.30
2023-01-10T16:22:43.935Z,10.50
2023-01-10T16:25:16.845Z,6.67
2023-01-10T16:27:46.843Z,10.73
2023-01-10T16:30:33.409Z,10.90
2023-01-10T16:33:02.307Z,15.33
2023-01-10T16:35:31.038Z,7.60
2023-01-10T16:38:00.743Z,16.50
2023-01-10T16:40:30.107Z,385.07
2023-01-10T16:43:17.774Z,10.80
2023-01-10T16:45:46.925Z,13.30
2023-01-10T16:48:16.057Z,12.37
2023-01-10T16:50:44.741Z,13.90
2023-01-10T16:53:13.738Z,65.93
2023-01-10T16:55:43.002Z,10.30
2023-01-10T16:58:13.481Z,34.10
2023-01-10T17:00:42.560Z,8.37
2023-01-10T17:03:14.016Z,15.33
2023-01-10T17:05:42.653Z,14.63
2023-01-10T17:08:12.735Z,7.80
2023-01-10T17:10:41.403Z,13.87
2023-01-10T17:13:09.955Z,9.43
2023-01-10T17:15:39.947Z,16.80
2023-01-10T17:18:08.533Z,10.87
2023-01-10T17:20:37.143Z,14.73
2023-01-10T17:23:06.695Z,13.13
2023-01-10T17:25:35.161Z,16.70
2023-01-10T17:28:03.774Z,15.47
2023-01-10T17:30:32.340Z,10.43
2023-01-10T17:33:02.238Z,5.97
2023-01-10T17:35:32.825Z,10.60
2023-01-10T17:38:01.964Z,11.07
2023-01-10T17:40:30.430Z,12.67
2023-01-10T17:42:59.072Z,10.47
2023-01-10T17:45:27.679Z,11.17
2023-01-10T17:47:56.172Z,10.97
2023-01-10T17:50:26.118Z,15.33
2023-01-10T17:52:54.663Z,8.77
2023-01-10T17:55:23.228Z,10.77
2023-01-10T17:57:51.887Z,8.57
2023-01-10T18:00:20.924Z,7.93
2023-01-10T18:02:49.528Z,7.60
2023-01-10T18:05:18.202Z,11.40
2023-01-10T18:07:48.143Z,4.10
2023-01-10T18:10:16.907Z,4.97
2023-01-10T18:12:45.655Z,6.13
2023-01-10T18:15:14.230Z,14.37
2023-01-10T18:17:44.271Z,9.43
2023-01-10T18:20:13.583Z,9.33
2023-01-10T18:23:05.283Z,4.17
2023-01-10T18:25:35.307Z,8.00
2023-01-10T18:28:03.944Z,10.50
2023-01-10T18:30:32.455Z,2.80
2023-01-10T18:33:01.031Z,9.80
2023-01-10T18:35:30.308Z,11.03
2023-01-10T18:37:58.983Z,8.43
2023-01-10T18:40:30.250Z,10.77
2023-01-10T18:43:00.254Z,9.93
2023-01-10T18:45:30.611Z,9.40
2023-01-10T18:47:59.274Z,7.83
2023-01-10T18:50:28.327Z,9.47
2023-01-10T18:52:57.773Z,6.60
2023-01-10T18:55:26.259Z,7.17
2023-01-10T18:57:54.807Z,9.93
2023-01-10T19:00:25.273Z,10.20
2023-01-10T19:02:57.779Z,6.70
2023-01-10T19:05:27.434Z,12.27
2023-01-10T19:07:55.903Z,9.67
2023-01-10T19:10:24.408Z,9.37
2023-01-10T19:12:54.692Z,3.93
2023-01-10T19:15:23.184Z,11.93
2023-01-10T19:17:53.075Z,8.20
2023-01-10T19:20:21.765Z,4.93
2023-01-10T19:22:50.239Z,5.53
2023-01-10T19:25:18.785Z,5.83
2023-01-10T19:27:47.427Z,5.17
2023-01-10T19:30:16.035Z,10.93
2023-01-10T19:32:44.500Z,5.10
2023-01-10T19:35:14.724Z,6.13
2023-01-10T19:37:43.203Z,4.10
2023-01-10T19:40:12.426Z,4.60
2023-01-10T19:42:41.027Z,7.83
2023-01-10T19:45:09.945Z,2.13
2023-01-10T19:47:38.430Z,3.03
2023-01-10T19:50:07.492Z,3.77
2023-01-10T19:52:37.353Z,3.37
2023-01-10T19:55:06.144Z,3.53
2023-01-10T19:57:34.831Z,2.83
2023-01-10T20:00:03.317Z,5.83
2023-01-10T20:02:32.006Z,1.63
2023-01-10T20:05:01.314Z,1.10
2023-01-10T20:07:29.807Z,6.43
2023-01-10T20:10:00.038Z,16.80
2023-01-10T20:12:28.709Z,3.17
2023-01-10T20:14:57.494Z,2.30
2023-01-10T20:17:27.821Z,3.10
2023-01-10T20:19:58.065Z,6.90
2023-01-10T20:22:26.590Z,2.60
2023-01-10T20:24:55.074Z,2.50
2023-01-10T20:27:25.048Z,2.77
2023-01-10T20:29:53.624Z,4.07
2023-01-10T20:32:22.103Z,8.17
2023-01-10T20:34:51.208Z,4.40
2023-01-10T20:37:19.888Z,4.77
2023-01-10T20:39:48.392Z,6.57
2023-01-10T20:42:17.000Z,13.13
2023-01-10T20:44:46.993Z,4.67
2023-01-10T20:47:15.740Z,9.27
2023-01-10T20:49:44.272Z,6.33
2023-01-10T20:52:15.222Z,9.07
2023-01-10T20:54:45.999Z,9.00
2023-01-10T20:57:14.778Z,10.50
2023-01-10T20:59:43.307Z,10.90
2023-01-10T21:02:13.725Z,6.67
2023-01-10T21:04:42.407Z,8.67
2023-01-10T21:07:10.885Z,8.27
2023-01-10T21:09:39.370Z,13.03
2023-01-10T21:12:22.152Z,9.13
2023-01-10T21:14:52.479Z,7.03
2023-01-10T21:17:23.083Z,10.93
2023-01-10T21:19:51.548Z,11.70
2023-01-10T21:22:20.048Z,8.10
2023-01-10T21:24:50.098Z,9.17
2023-01-10T21:27:18.557Z,8.47
2023-01-10T21:29:47.032Z,8.07
2023-01-10T21:32:15.808Z,16.90
2023-01-10T21:34:45.691Z,10.53
2023-01-10T21:37:14.311Z,11.30
2023-01-10T21:39:42.949Z,7.80
2023-01-10T21:42:29.479Z,5.37
2023-01-10T21:44:58.181Z,9.00
2023-01-10T21:47:26.668Z,8.83
2023-01-10T21:49:56.703Z,8.33
2023-01-10T21:52:25.725Z,11.50
2023-01-10T21:54:54.276Z,14.57
2023-01-10T21:57:23.572Z,9.77
2023-01-10T21:59:52.314Z,12.30
2023-01-10T22:02:21.424Z,8.03
2023-01-10T22:04:51.700Z,13.47
2023-01-10T22:07:22.596Z,11.10
2023-01-10T22:09:51.271Z,6.27
2023-01-10T22:12:20.239Z,10.07
2023-01-10T22:14:49.088Z,8.93
2023-01-10T22:17:18.543Z,10.37
2023-01-10T22:19:47.041Z,8.33
2023-01-10T22:22:16.329Z,13.87
2023-01-10T22:24:47.888Z,10.43
2023-01-10T22:27:16.381Z,6.87
2023-01-10T22:29:45.384Z,13.77
2023-01-10T22:32:14.061Z,16.17
2023-01-10T22:34:42.545Z,13.33
2023-01-10T22:37:11.154Z,8.50
2023-01-10T22:39:39.865Z,12.47
2023-01-10T22:42:09.725Z,12.77
2023-01-10T22:44:38.546Z,5.97
2023-01-10T22:47:07.339Z,9.90
2023-01-10T22:49:35.814Z,13.03
2023-01-10T22:52:05.259Z,10.50
2023-01-10T22:54:33.834Z,16.57
2023-01-10T22:57:02.306Z,9.47
2023-01-10T22:59:34.811Z,8.33
2023-01-10T23:02:03.471Z,10.67
2023-01-10T23:04:31.972Z,7.43
2023-01-10T23:07:00.566Z,13.97
2023-01-10T23:09:29.210Z,9.97
2023-01-10T23:11:57.679Z,7.30
2023-01-10T23:14:26.270Z,11.30
2023-01-10T23:16:56.235Z,5.90
2023-01-10T23:19:24.705Z,8.13
2023-01-10T23:21:53.377Z,12.23
2023-01-10T23:24:22.027Z,6.47
2023-01-10T23:26:51.328Z,5.77
2023-01-10T23:29:19.953Z,9.90
2023-01-10T23:31:49.930Z,8.53
2023-01-10T23:34:19.857Z,4.73
2023-01-10T23:36:48.517Z,8.77
2023-01-10T23:39:19.049Z,10.97
2023-01-10T23:41:47.575Z,7.37
2023-01-10T23:44:16.297Z,7.63
2023-01-10T23:46:45.000Z,11.23
2023-01-10T23:49:13.694Z,7.90
2023-01-10T23:51:43.666Z,10.13
2023-01-10T23:54:12.212Z,5.97
2023-01-10T23:56:40.688Z,10.70
2023-01-10T23:59:09.360Z,12.93
